createdAt,value
2017-04-14T00:00:59.533Z,5.67
2017-04-14T00:02:09.404Z,5.65
2017-04-14T00:03:19.768Z,5.62
2017-04-14T00:04:29.891Z,5.64
2017-04-14T00:05:39.994Z,5.59
2017-04-14T00:06:50.107Z,5.54
2017-04-14T00:08:00.176Z,5.54
2017-04-14T00:09:09.882Z,5.51
2017-04-14T00:10:19.956Z,5.43
2017-04-14T00:11:29.782Z,5.47
2017-04-14T00:12:39.522Z,5.46
2017-04-14T00:13:49.310Z,5.49
2017-04-14T00:14:59.723Z,5.4
2017-04-14T00:16:09.817Z,5.43
2017-04-14T00:17:19.908Z,5.46
2017-04-14T00:18:30.032Z,5.43
2017-04-14T00:19:40.220Z,5.31
2017-04-14T00:20:50.382Z,5.41
2017-04-14T00:22:00.149Z,5.31
2017-04-14T00:23:10.262Z,5.33
2017-04-14T00:24:19.687Z,5.29
2017-04-14T00:25:29.521Z,5.21
2017-04-14T00:26:39.561Z,5.28
2017-04-14T00:27:49.676Z,5.32
2017-04-14T00:28:59.871Z,5.31
2017-04-14T00:30:09.608Z,5.33
2017-04-14T00:31:19.734Z,5.21
2017-04-14T00:32:30.117Z,5.22
2017-04-14T00:33:39.865Z,5.25
2017-04-14T00:34:48.937Z,5.31
2017-04-14T00:35:59.113Z,5.17
2017-04-14T00:37:09.180Z,5.22
2017-04-14T00:38:19.330Z,5.29
2017-04-14T00:39:29.414Z,5.28
2017-04-14T00:40:39.272Z,5.17
2017-04-14T00:41:49.461Z,5.16
2017-04-14T00:42:59.229Z,5.24
2017-04-14T00:44:09.261Z,5.18
2017-04-14T00:45:19.334Z,5.21
2017-04-14T00:46:28.752Z,5.13
2017-04-14T00:47:38.853Z,5.17
2017-04-14T00:48:49.011Z,5.11
2017-04-14T00:49:59.524Z,5.13
2017-04-14T00:51:09.584Z,5.04
2017-04-14T00:52:19.311Z,5.1
2017-04-14T00:53:29.045Z,5.07
2017-04-14T00:54:39.153Z,5.13
2017-04-14T00:55:49.182Z,5.03
2017-04-14T00:56:58.912Z,4.98
2017-04-14T00:58:08.658Z,4.99
2017-04-14T00:59:18.732Z,5.04
2017-04-14T01:00:28.467Z,4.93
2017-04-14T01:01:38.938Z,4.96
2017-04-14T01:02:48.690Z,4.92
2017-04-14T01:03:58.760Z,4.93
2017-04-14T01:05:08.840Z,4.9
2017-04-14T01:06:18.578Z,4.9
2017-04-14T01:07:28.997Z,4.9
2017-04-14T01:08:39.079Z,4.92
2017-04-14T01:09:49.245Z,4.83
2017-04-14T01:10:59.319Z,4.85
2017-04-14T01:12:09.427Z,4.81
2017-04-14T01:13:19.829Z,4.81
2017-04-14T01:14:29.924Z,4.83
2017-04-14T01:15:40.017Z,4.86
2017-04-14T01:16:50.106Z,4.86
2017-04-14T01:17:59.513Z,4.78
2017-04-14T01:19:09.588Z,4.74
2017-04-14T01:20:19.321Z,4.77
2017-04-14T01:21:29.387Z,4.62
2017-04-14T01:22:39.457Z,4.74
2017-04-14T01:23:48.899Z,4.59
2017-04-14T01:24:59.293Z,4.71
2017-04-14T01:26:09.036Z,4.57
2017-04-14T01:27:18.780Z,4.7
2017-04-14T01:28:28.921Z,4.5
2017-04-14T01:29:38.708Z,4.53
2017-04-14T01:30:49.131Z,4.53
2017-04-14T01:31:58.890Z,4.56
2017-04-14T01:33:09.313Z,4.55
2017-04-14T01:34:19.048Z,4.56
2017-04-14T01:35:28.829Z,4.55
2017-04-14T01:36:39.192Z,4.56
2017-04-14T01:37:48.972Z,4.56
2017-04-14T01:38:58.709Z,4.53
2017-04-14T01:40:08.467Z,4.55
2017-04-14T01:41:18.548Z,4.53
2017-04-14T01:42:28.960Z,4.57
2017-04-14T01:43:38.030Z,4.56
2017-04-14T01:44:47.807Z,4.56
2017-04-14T01:45:57.918Z,4.53
2017-04-14T01:47:07.988Z,4.53
2017-04-14T01:48:18.069Z,4.53
2017-04-14T01:49:28.145Z,4.6
2017-04-14T01:50:37.558Z,4.53
2017-04-14T01:51:47.732Z,4.5
2017-04-14T01:52:57.827Z,4.49
2017-04-14T01:54:08.380Z,4.52
2017-04-14T01:55:18.544Z,4.52
2017-04-14T01:56:28.316Z,4.41
2017-04-14T01:57:38.530Z,4.41
2017-04-14T01:58:48.603Z,4.4
2017-04-14T01:59:58.354Z,4.4
2017-04-14T02:01:08.428Z,4.41
2017-04-14T02:02:18.492Z,4.38
2017-04-14T02:03:28.956Z,4.36
2017-04-14T02:04:39.074Z,4.4
2017-04-14T02:05:49.505Z,4.43
2017-04-14T02:06:58.914Z,4.37
2017-04-14T02:08:08.664Z,4.46
2017-04-14T02:09:18.742Z,4.38
2017-04-14T02:10:28.854Z,4.46
2017-04-14T02:11:38.574Z,4.46
2017-04-14T02:12:48.779Z,4.3
2017-04-14T02:13:58.533Z,4.3
2017-04-14T02:15:08.602Z,4.33
2017-04-14T02:16:18.331Z,4.31
2017-04-14T02:17:28.808Z,4.37
2017-04-14T02:18:38.928Z,4.25
2017-04-14T02:19:49.042Z,4.23
2017-04-14T02:20:58.829Z,4.23
2017-04-14T02:22:08.605Z,4.19
2017-04-14T02:23:18.734Z,4.2
2017-04-14T02:24:28.800Z,4.23
2017-04-14T02:25:38.623Z,4.28
2017-04-14T02:26:48.695Z,4.23
2017-04-14T02:27:58.920Z,4.19
2017-04-14T02:29:09.283Z,4.18
2017-04-14T02:30:19.017Z,4.25
2017-04-14T02:31:29.144Z,4.2
2017-04-14T02:32:38.828Z,4.19
2017-04-14T02:33:48.561Z,4.25
2017-04-14T02:34:58.932Z,4.2
2017-04-14T02:36:08.733Z,4.19
2017-04-14T02:37:18.466Z,4.25
2017-04-14T02:38:28.536Z,4.2
2017-04-14T02:39:37.992Z,4.19
2017-04-14T02:40:48.041Z,4.2
2017-04-14T02:41:58.105Z,4.22
2017-04-14T02:43:07.549Z,4.13
2017-04-14T02:44:17.312Z,4.12
2017-04-14T02:45:27.061Z,4.11
2017-04-14T02:46:36.862Z,4.12
2017-04-14T02:47:46.983Z,4.11
2017-04-14T02:48:57.048Z,4.15
2017-04-14T02:50:07.269Z,4.12
2017-04-14T02:51:17.049Z,4.19
2017-04-14T02:52:27.517Z,4.25
2017-04-14T02:53:36.921Z,4.15
2017-04-14T02:54:47.108Z,4.11
2017-04-14T02:55:57.202Z,4.15
2017-04-14T02:57:06.941Z,4.09
2017-04-14T02:58:17.345Z,4.11
2017-04-14T02:59:27.135Z,4.13
2017-04-14T03:00:37.234Z,4.18
2017-04-14T03:01:47.298Z,4.19
2017-04-14T03:02:56.716Z,4.15
2017-04-14T03:04:07.088Z,4.11
2017-04-14T03:05:17.162Z,4.13
2017-04-14T03:06:26.948Z,4.18
2017-04-14T03:07:37.130Z,4.19
2017-04-14T03:08:46.918Z,4.2
2017-04-14T03:09:56.956Z,4.04
2017-04-14T03:11:07.022Z,4.12
2017-04-14T03:12:16.859Z,4.08
2017-04-14T03:13:26.360Z,4.16
2017-04-14T03:14:36.477Z,4.2
2017-04-14T03:15:46.518Z,4.18
2017-04-14T03:16:55.926Z,4.19
2017-04-14T03:18:05.996Z,4.11
2017-04-14T03:19:16.119Z,4.11
2017-04-14T03:20:25.565Z,4.05
2017-04-14T03:21:35.602Z,3.98
2017-04-14T03:22:44.676Z,4.04
2017-04-14T03:23:54.806Z,4.01
2017-04-14T03:25:04.533Z,4.04
2017-04-14T03:26:14.611Z,4.09
2017-04-14T03:27:25.023Z,4.05
2017-04-14T03:28:34.765Z,4
2017-04-14T03:29:44.505Z,4
2017-04-14T03:30:54.726Z,4.01
2017-04-14T03:32:04.801Z,3.98
2017-04-14T03:33:14.948Z,4.03
2017-04-14T03:34:25.084Z,4.03
2017-04-14T03:35:35.211Z,4.04
2017-04-14T03:36:45.061Z,4.01
2017-04-14T03:37:55.120Z,3.98
2017-04-14T03:39:04.814Z,4.04
2017-04-14T03:40:14.559Z,4.01
2017-04-14T03:41:24.284Z,4.03
2017-04-14T03:42:34.037Z,3.97
2017-04-14T03:43:43.438Z,4.03
2017-04-14T03:44:53.818Z,3.95
2017-04-14T03:46:04.013Z,3.9
2017-04-14T03:47:14.093Z,4
2017-04-14T03:48:24.162Z,3.9
2017-04-14T03:49:33.562Z,3.91
2017-04-14T03:50:43.953Z,4
2017-04-14T03:51:53.484Z,3.95
2017-04-14T03:53:03.556Z,3.94
2017-04-14T03:54:13.635Z,4.01
2017-04-14T03:55:23.744Z,3.9
2017-04-14T03:56:33.476Z,3.97
2017-04-14T03:57:43.233Z,3.95
2017-04-14T03:58:53.322Z,3.98
2017-04-14T04:00:03.423Z,4.08
2017-04-14T04:01:13.590Z,4.01
2017-04-14T04:02:24.012Z,4
2017-04-14T04:03:33.430Z,3.97
2017-04-14T04:04:43.522Z,3.98
2017-04-14T04:05:53.261Z,3.94
2017-04-14T04:07:03.390Z,3.87
2017-04-14T04:08:12.773Z,3.95
2017-04-14T04:09:22.848Z,3.91
2017-04-14T04:10:32.658Z,3.86
2017-04-14T04:11:42.721Z,3.9
2017-04-14T04:12:52.466Z,3.87
2017-04-14T04:14:02.469Z,3.8
2017-04-14T04:15:12.550Z,3.83
2017-04-14T04:16:22.610Z,3.82
2017-04-14T04:17:32.355Z,3.82
2017-04-14T04:18:42.101Z,3.77
2017-04-14T04:19:52.206Z,3.77
2017-04-14T04:21:02.033Z,3.76
2017-04-14T04:22:12.163Z,3.77
2017-04-14T04:23:21.564Z,3.82
2017-04-14T04:24:31.851Z,3.79
2017-04-14T04:25:41.894Z,3.73
2017-04-14T04:26:51.677Z,3.76
2017-04-14T04:28:01.754Z,3.77
2017-04-14T04:29:11.513Z,3.8
2017-04-14T04:30:21.253Z,3.86
2017-04-14T04:31:31.337Z,3.77
2017-04-14T04:32:41.110Z,3.77
2017-04-14T04:33:50.844Z,3.85
2017-04-14T04:35:00.586Z,3.85
2017-04-14T04:36:10.319Z,3.79
2017-04-14T04:37:20.849Z,3.82
2017-04-14T04:38:30.624Z,3.86
2017-04-14T04:39:40.439Z,3.85
2017-04-14T04:40:50.173Z,3.86
2017-04-14T04:41:59.922Z,3.9
2017-04-14T04:43:09.608Z,3.85
2017-04-14T04:44:19.684Z,3.86
2017-04-14T04:45:29.798Z,3.97
2017-04-14T04:46:39.526Z,3.95
2017-04-14T04:47:49.329Z,3.87
2017-04-14T04:48:59.441Z,3.9
2017-04-14T04:50:09.522Z,3.93
2017-04-14T04:51:19.585Z,3.87
2017-04-14T04:52:29.000Z,3.95
2017-04-14T04:53:39.222Z,3.95
2017-04-14T04:54:49.768Z,3.95
2017-04-14T04:55:59.937Z,3.91
2017-04-14T04:57:10.056Z,3.95
2017-04-14T04:58:19.486Z,3.93
2017-04-14T04:59:29.261Z,3.94
2017-04-14T05:00:39.736Z,3.91
2017-04-14T05:01:49.814Z,3.9
2017-04-14T05:02:59.544Z,3.97
2017-04-14T05:04:09.293Z,4.01
2017-04-14T05:05:19.366Z,4
2017-04-14T05:06:29.780Z,4
2017-04-14T05:07:39.852Z,4.03
2017-04-14T05:08:49.951Z,4.04
2017-04-14T05:09:59.865Z,4.08
2017-04-14T05:11:10.010Z,4.16
2017-04-14T05:12:20.477Z,4.25
2017-04-14T05:13:30.549Z,4.13
2017-04-14T05:14:40.287Z,4.23
2017-04-14T05:15:50.103Z,4.05
2017-04-14T05:16:59.944Z,4.16
2017-04-14T05:18:09.634Z,4.05
2017-04-14T05:19:19.706Z,4.18
2017-04-14T05:20:29.792Z,4.16
2017-04-14T05:21:39.851Z,4.23
2017-04-14T05:22:49.593Z,4.18
2017-04-14T05:23:59.961Z,4.28
2017-04-14T05:25:10.133Z,4.22
2017-04-14T05:26:52.081Z,4.28
2017-04-14T05:28:02.176Z,4.27
2017-04-14T05:29:12.219Z,4.31
2017-04-14T05:30:21.999Z,4.4
2017-04-14T05:31:31.763Z,4.47
2017-04-14T05:32:42.026Z,4.37
2017-04-14T05:33:51.433Z,4.46
2017-04-14T05:35:01.495Z,4.5
2017-04-14T05:36:11.611Z,4.55
2017-04-14T05:37:21.027Z,4.56
2017-04-14T05:38:31.197Z,4.52
2017-04-14T05:39:41.326Z,4.62
2017-04-14T05:40:51.737Z,4.62
2017-04-14T05:42:01.827Z,4.59
2017-04-14T05:43:11.329Z,4.67
2017-04-14T05:44:21.454Z,4.7
2017-04-14T05:45:31.581Z,4.7
2017-04-14T05:46:42.017Z,4.68
2017-04-14T05:47:51.762Z,4.68
2017-04-14T05:49:01.851Z,4.65
2017-04-14T05:50:11.971Z,4.62
2017-04-14T05:51:21.434Z,4.63
2017-04-14T05:52:31.594Z,4.73
2017-04-14T05:53:41.693Z,4.67
2017-04-14T05:54:51.440Z,4.71
2017-04-14T05:56:01.193Z,4.75
2017-04-14T05:57:10.982Z,4.77
2017-04-14T05:58:21.615Z,4.77
2017-04-14T05:59:31.260Z,4.68
2017-04-14T06:00:41.384Z,4.81
2017-04-14T06:01:51.139Z,4.7
2017-04-14T06:03:01.213Z,4.8
2017-04-14T06:04:11.017Z,4.8
2017-04-14T06:05:21.197Z,4.75
2017-04-14T06:06:30.596Z,4.85
2017-04-14T06:07:40.007Z,4.83
2017-04-14T06:08:50.188Z,4.83
2017-04-14T06:10:00.309Z,4.81
2017-04-14T06:11:09.715Z,4.86
2017-04-14T06:12:19.869Z,4.93
2017-04-14T06:13:30.011Z,4.9
2017-04-14T06:14:40.099Z,4.95
2017-04-14T06:15:50.501Z,5.04
2017-04-14T06:17:00.667Z,4.99
2017-04-14T06:18:10.809Z,5.07
2017-04-14T06:19:20.547Z,5.07
2017-04-14T06:20:30.629Z,5.14
2017-04-14T06:21:40.677Z,5.21
2017-04-14T06:22:50.172Z,5.18
2017-04-14T06:24:00.052Z,5.16
2017-04-14T06:25:10.321Z,5.22
2017-04-14T06:26:20.095Z,5.21
2017-04-14T06:27:30.566Z,5.25
2017-04-14T06:28:40.814Z,5.38
2017-04-14T06:29:50.943Z,5.29
2017-04-14T06:31:00.433Z,5.38
2017-04-14T06:32:10.164Z,5.4
2017-04-14T06:33:20.252Z,5.47
2017-04-14T06:34:30.002Z,5.58
2017-04-14T06:35:39.739Z,5.59
2017-04-14T06:36:49.526Z,5.67
2017-04-14T06:37:59.599Z,5.82
2017-04-14T06:39:09.740Z,5.83
2017-04-14T06:40:19.829Z,5.9
2017-04-14T06:41:29.242Z,6.03
2017-04-14T06:42:38.991Z,6.02
2017-04-14T06:43:48.775Z,5.98
2017-04-14T06:44:59.136Z,6.01
2017-04-14T06:46:09.233Z,6.12
2017-04-14T06:47:19.306Z,6.08
2017-04-14T06:48:29.388Z,6.09
2017-04-14T06:49:39.456Z,6.09
2017-04-14T06:50:49.902Z,6.06
2017-04-14T06:51:59.987Z,6.06
2017-04-14T06:53:10.130Z,6.16
2017-04-14T06:54:20.228Z,6.17
2017-04-14T06:55:30.316Z,6.17
2017-04-14T06:56:40.695Z,6.31
2017-04-14T06:57:50.437Z,6.3
2017-04-14T06:59:00.553Z,6.26
2017-04-14T07:00:10.302Z,6.31
2017-04-14T07:01:20.500Z,6.28
2017-04-14T07:02:30.974Z,6.41
2017-04-14T07:03:40.714Z,6.42
2017-04-14T07:04:50.600Z,6.53
2017-04-14T07:06:00.685Z,6.49
2017-04-14T07:07:11.203Z,6.53
2017-04-14T07:08:20.950Z,6.46
2017-04-14T07:09:31.036Z,6.52
2017-04-14T07:10:41.109Z,6.49
2017-04-14T07:11:51.173Z,6.48
2017-04-14T07:13:00.936Z,6.54
2017-04-14T07:14:11.031Z,6.6
2017-04-14T07:15:20.781Z,6.63
2017-04-14T07:16:31.055Z,6.67
2017-04-14T07:17:41.263Z,6.74
2017-04-14T07:18:50.680Z,6.75
2017-04-14T07:20:01.059Z,6.74
2017-04-14T07:21:11.155Z,6.75
2017-04-14T07:22:20.656Z,6.85
2017-04-14T07:23:30.405Z,6.84
2017-04-14T07:24:40.507Z,6.85
2017-04-14T07:25:50.571Z,6.87
2017-04-14T07:27:00.644Z,6.9
2017-04-14T07:28:10.800Z,6.99
2017-04-14T07:29:21.079Z,6.93
2017-04-14T07:30:30.833Z,6.93
2017-04-14T07:31:40.878Z,7
2017-04-14T07:32:50.978Z,7.03
2017-04-14T07:34:01.043Z,7.08
2017-04-14T07:35:11.142Z,7.08
2017-04-14T07:36:21.279Z,7.15
2017-04-14T07:37:31.718Z,7.15
2017-04-14T07:38:41.915Z,7.21
2017-04-14T07:39:52.161Z,7.22
2017-04-14T07:41:02.438Z,7.26
2017-04-14T07:42:12.510Z,7.48
2017-04-14T07:43:22.210Z,7.41
2017-04-14T07:44:32.293Z,7.61
2017-04-14T07:45:42.378Z,7.64
2017-04-14T07:46:52.122Z,7.66
2017-04-14T07:48:02.343Z,7.76
2017-04-14T07:49:12.773Z,7.64
2017-04-14T07:50:22.843Z,7.7
2017-04-14T07:51:32.982Z,7.85
2017-04-14T07:52:42.852Z,7.88
2017-04-14T07:53:52.633Z,7.98
2017-04-14T07:55:02.439Z,8.07
2017-04-14T07:56:11.863Z,8.25
2017-04-14T07:57:22.673Z,8.42
2017-04-14T07:58:33.343Z,8.46
2017-04-14T07:59:44.101Z,8.79
2017-04-14T08:00:54.904Z,9.15
2017-04-14T08:02:05.406Z,9.35
2017-04-14T08:03:16.146Z,9.52
2017-04-14T08:04:26.216Z,9.71
2017-04-14T08:05:36.990Z,9.98
2017-04-14T08:06:48.099Z,10.29
2017-04-14T08:07:58.875Z,10.65
2017-04-14T08:09:09.289Z,10.97
2017-04-14T08:10:19.669Z,11.17
2017-04-14T08:11:30.993Z,11.4
2017-04-14T08:12:42.042Z,11.76
2017-04-14T08:13:52.533Z,12.09
2017-04-14T08:15:03.288Z,12.27
2017-04-14T08:16:14.017Z,12.55
2017-04-14T08:17:24.775Z,12.82
2017-04-14T08:18:35.523Z,13.22
2017-04-14T08:19:47.213Z,13.59
2017-04-14T08:20:57.615Z,13.73
2017-04-14T08:22:08.419Z,14.06
2017-04-14T08:23:18.788Z,14.28
2017-04-14T08:24:29.909Z,14.72
2017-04-14T08:25:40.639Z,15
2017-04-14T08:26:51.370Z,15.06
2017-04-14T08:28:01.800Z,15.27
2017-04-14T08:29:12.563Z,15.36
2017-04-14T08:30:23.683Z,15.68
2017-04-14T08:31:34.439Z,15.82
2017-04-14T08:32:45.102Z,15.84
2017-04-14T08:33:55.872Z,15.8
2017-04-14T08:35:06.694Z,15.75
2017-04-14T08:36:17.358Z,15.55
2017-04-14T08:37:28.059Z,15.61
2017-04-14T08:38:39.732Z,15.55
2017-04-14T08:39:50.167Z,15.58
2017-04-14T08:41:00.926Z,15.73
2017-04-14T08:42:12.020Z,15.98
2017-04-14T08:43:22.800Z,15.84
2017-04-14T08:44:33.192Z,15.87
2017-04-14T08:45:43.228Z,15.78
2017-04-14T08:46:53.999Z,15.64
2017-04-14T08:48:05.096Z,15.88
2017-04-14T08:49:15.679Z,15.99
2017-04-14T08:50:26.087Z,16.34
2017-04-14T08:51:36.932Z,16.5
2017-04-14T08:52:47.332Z,16.74
2017-04-14T08:53:58.429Z,16.76
2017-04-14T08:55:09.144Z,16.98
2017-04-14T08:56:19.569Z,17.21
2017-04-14T08:57:30.380Z,17.61
2017-04-14T08:58:41.180Z,17.79
2017-04-14T08:59:53.012Z,17.94
2017-04-14T09:01:04.879Z,17.87
2017-04-14T09:02:15.598Z,18.02
2017-04-14T09:03:26.314Z,17.94
2017-04-14T09:04:37.030Z,18.05
2017-04-14T09:05:48.091Z,18.1
2017-04-14T09:06:58.847Z,18.38
2017-04-14T09:08:09.346Z,18.57
2017-04-14T09:09:19.734Z,18.91
2017-04-14T09:10:30.822Z,18.82
2017-04-14T09:11:42.792Z,18.95
2017-04-14T09:12:53.583Z,19.19
2017-04-14T09:14:04.309Z,19.28
2017-04-14T09:15:15.096Z,19.33
2017-04-14T09:16:26.001Z,19.31
2017-04-14T09:17:37.133Z,19.63
2017-04-14T09:18:47.918Z,19.65
2017-04-14T09:19:58.354Z,19.27
2017-04-14T09:21:09.124Z,19.08
2017-04-14T09:22:19.938Z,18.41
2017-04-14T09:23:30.954Z,17.91
2017-04-14T09:24:41.068Z,17.5
2017-04-14T09:25:51.491Z,17.24
2017-04-14T09:27:02.324Z,17.11
2017-04-14T09:28:12.715Z,17.08
2017-04-14T09:29:23.750Z,17.31
2017-04-14T09:30:34.451Z,17.73
2017-04-14T09:31:45.925Z,18.16
2017-04-14T09:32:56.643Z,18.69
2017-04-14T09:34:07.369Z,18.97
2017-04-14T09:35:18.513Z,19.33
2017-04-14T09:36:30.293Z,19.68
2017-04-14T09:37:40.773Z,19.83
2017-04-14T09:38:51.549Z,20.19
2017-04-14T09:40:01.874Z,20.39
2017-04-14T09:41:12.902Z,20.3
2017-04-14T09:42:23.759Z,19.88
2017-04-14T09:43:34.587Z,19.6
2017-04-14T09:44:45.313Z,19.43
2017-04-14T09:45:56.095Z,19.48
2017-04-14T09:47:07.148Z,19.28
2017-04-14T09:48:18.839Z,19
2017-04-14T09:49:29.230Z,18.62
2017-04-14T09:50:39.992Z,18.82
2017-04-14T09:51:50.808Z,18.95
2017-04-14T09:53:01.850Z,19.27
2017-04-14T09:54:12.559Z,19.5
2017-04-14T09:55:23.548Z,19.88
2017-04-14T09:56:34.024Z,19.9
2017-04-14T09:57:44.745Z,20.24
2017-04-14T09:58:55.445Z,20.24
2017-04-14T10:00:06.177Z,20.16
2017-04-14T10:01:16.966Z,20.21
2017-04-14T10:02:27.484Z,20.31
2017-04-14T10:03:38.846Z,20.05
2017-04-14T10:04:49.526Z,19.53
2017-04-14T10:06:00.867Z,19.25
2017-04-14T10:07:11.262Z,19.18
2017-04-14T10:08:22.003Z,19.09
2017-04-14T10:09:32.504Z,19.27
2017-04-14T10:10:43.600Z,19.4
2017-04-14T10:11:55.150Z,19.52
2017-04-14T10:13:06.492Z,19.61
2017-04-14T10:14:17.223Z,19.52
2017-04-14T10:15:27.679Z,19.46
2017-04-14T10:16:38.723Z,19.56
2017-04-14T10:17:48.875Z,19.73
2017-04-14T10:18:59.858Z,19.89
2017-04-14T10:20:10.716Z,19.93
2017-04-14T10:21:21.262Z,20.03
2017-04-14T10:22:32.065Z,20.26
2017-04-14T10:23:42.816Z,20.2
2017-04-14T10:24:53.551Z,20.2
2017-04-14T10:26:04.550Z,19.88
2017-04-14T10:27:15.407Z,19.82
2017-04-14T10:28:26.514Z,19.58
2017-04-14T10:30:08.379Z,19.6
2017-04-14T10:31:18.785Z,19.63
2017-04-14T10:32:29.640Z,19.76
2017-04-14T10:33:41.645Z,19.95
2017-04-14T10:34:52.490Z,20.03
2017-04-14T10:36:03.348Z,20.27
2017-04-14T10:37:13.436Z,20.31
2017-04-14T10:38:24.238Z,20.08
2017-04-14T10:39:36.344Z,19.9
2017-04-14T10:40:47.079Z,20.03
2017-04-14T10:41:57.847Z,19.86
2017-04-14T10:43:08.605Z,19.67
2017-04-14T10:44:19.511Z,19.19
2017-04-14T10:45:30.676Z,18.84
2017-04-14T10:46:41.471Z,18.31
2017-04-14T10:47:51.913Z,18.07
2017-04-14T10:49:02.305Z,18.05
2017-04-14T10:50:13.078Z,18.32
2017-04-14T10:51:24.130Z,18.47
2017-04-14T10:52:34.924Z,18.65
2017-04-14T10:53:45.651Z,19.08
2017-04-14T10:54:56.421Z,19.13
2017-04-14T10:56:07.198Z,18.82
2017-04-14T10:57:18.271Z,19
2017-04-14T10:58:29.001Z,19.08
2017-04-14T10:59:39.515Z,19.15
2017-04-14T11:00:50.261Z,19.43
2017-04-14T11:02:01.037Z,19.27
2017-04-14T11:03:12.185Z,19.34
2017-04-14T11:04:22.932Z,19.27
2017-04-14T11:05:32.681Z,19.31
2017-04-14T11:06:43.464Z,19.13
2017-04-14T11:07:54.355Z,19.15
2017-04-14T11:09:05.417Z,19.19
2017-04-14T11:10:17.169Z,19.09
2017-04-14T11:11:27.301Z,18.72
2017-04-14T11:12:37.766Z,18.35
2017-04-14T11:13:48.658Z,18.35
2017-04-14T11:14:59.749Z,17.95
2017-04-14T11:16:10.499Z,17.47
2017-04-14T11:17:20.922Z,17.02
2017-04-14T11:18:32.712Z,17.02
2017-04-14T11:19:43.439Z,16.99
2017-04-14T11:20:54.475Z,17.05
2017-04-14T11:22:06.172Z,17.23
2017-04-14T11:23:16.955Z,17.42
2017-04-14T11:24:27.876Z,17.54
2017-04-14T11:25:38.723Z,17.75
2017-04-14T11:26:49.454Z,17.89
2017-04-14T11:27:59.936Z,17.94
2017-04-14T11:29:10.351Z,17.87
2017-04-14T11:30:21.332Z,17.91
2017-04-14T11:31:31.789Z,17.79
2017-04-14T11:32:42.923Z,17.87
2017-04-14T11:33:53.085Z,17.98
2017-04-14T11:35:03.590Z,18.12
2017-04-14T11:36:14.372Z,18.22
2017-04-14T11:37:24.965Z,18.34
2017-04-14T11:38:36.228Z,18.42
2017-04-14T11:39:48.013Z,18.49
2017-04-14T11:40:59.749Z,18.56
2017-04-14T11:42:10.710Z,18.69
2017-04-14T11:43:21.476Z,18.84
2017-04-14T11:44:32.295Z,18.93
2017-04-14T11:45:42.739Z,19.03
2017-04-14T11:46:52.966Z,19.19
2017-04-14T11:48:03.368Z,19.16
2017-04-14T11:49:15.119Z,19.23
2017-04-14T11:50:26.150Z,19.25
2017-04-14T11:51:36.901Z,19.23
2017-04-14T11:52:47.699Z,19.37
2017-04-14T11:53:58.616Z,19.31
2017-04-14T11:55:09.394Z,19.37
2017-04-14T11:56:20.523Z,19.4
2017-04-14T11:57:30.976Z,19.39
2017-04-14T11:58:42.012Z,19.49
2017-04-14T11:59:52.775Z,19.46
2017-04-14T12:01:03.194Z,19.21
2017-04-14T12:02:14.288Z,19.18
2017-04-14T12:03:25.211Z,19.18
2017-04-14T12:04:35.945Z,19.3
2017-04-14T12:05:46.760Z,19.33
2017-04-14T12:06:56.827Z,19.42
2017-04-14T12:08:07.871Z,19.56
2017-04-14T12:09:18.691Z,19.48
2017-04-14T12:10:29.114Z,19.53
2017-04-14T12:11:39.870Z,19.53
2017-04-14T12:12:50.600Z,19.61
2017-04-14T12:14:01.329Z,19.7
2017-04-14T12:15:12.724Z,19.78
2017-04-14T12:16:23.177Z,19.89
2017-04-14T12:17:34.009Z,19.89
2017-04-14T12:18:44.839Z,19.93
2017-04-14T12:19:55.542Z,19.82
2017-04-14T12:21:07.228Z,19.82
2017-04-14T12:22:17.657Z,19.86
2017-04-14T12:23:28.386Z,19.92
2017-04-14T12:24:38.828Z,19.79
2017-04-14T12:25:49.918Z,19.56
2017-04-14T12:26:59.661Z,19.49
2017-04-14T12:28:10.478Z,19.33
2017-04-14T12:29:21.379Z,19.31
2017-04-14T12:30:32.757Z,19.25
2017-04-14T12:31:43.627Z,19.39
2017-04-14T12:32:54.507Z,19.28
2017-04-14T12:34:05.284Z,19.28
2017-04-14T12:35:15.356Z,19.37
2017-04-14T12:36:26.167Z,19.42
2017-04-14T12:37:37.370Z,19.52
2017-04-14T12:38:47.817Z,19.56
2017-04-14T12:39:58.571Z,19.48
2017-04-14T12:41:09.006Z,19.27
2017-04-14T12:42:19.801Z,19.13
2017-04-14T12:43:30.923Z,19.12
2017-04-14T12:44:41.660Z,19.08
2017-04-14T12:45:52.503Z,18.95
2017-04-14T12:47:03.232Z,18.94
2017-04-14T12:48:14.134Z,18.8
2017-04-14T12:49:25.794Z,18.55
2017-04-14T12:50:36.592Z,18.22
2017-04-14T12:51:47.119Z,18
2017-04-14T12:52:57.863Z,17.95
2017-04-14T12:54:07.765Z,17.76
2017-04-14T12:55:18.517Z,17.62
2017-04-14T12:56:29.273Z,17.47
2017-04-14T12:57:40.009Z,17.57
2017-04-14T12:58:50.763Z,17.45
2017-04-14T13:00:01.541Z,17.54
2017-04-14T13:01:12.801Z,17.42
2017-04-14T13:02:22.936Z,17.21
2017-04-14T13:03:33.485Z,17.06
2017-04-14T13:04:44.223Z,17.02
2017-04-14T13:05:55.016Z,16.93
2017-04-14T13:07:06.169Z,16.84
2017-04-14T13:08:16.923Z,16.75
2017-04-14T13:09:27.318Z,16.68
2017-04-14T13:10:38.055Z,16.47
2017-04-14T13:11:48.807Z,16.27
2017-04-14T13:12:59.547Z,16.1
2017-04-14T13:14:09.950Z,15.95
2017-04-14T13:15:20.005Z,15.87
2017-04-14T13:16:30.806Z,15.79
2017-04-14T13:17:41.609Z,15.73
2017-04-14T13:18:53.602Z,15.69
2017-04-14T13:20:04.065Z,15.54
2017-04-14T13:21:15.842Z,15.43
2017-04-14T13:22:26.667Z,15.23
2017-04-14T13:23:37.471Z,15.06
2017-04-14T13:24:48.541Z,15
2017-04-14T13:25:59.004Z,14.98
2017-04-14T13:27:09.739Z,14.87
2017-04-14T13:28:20.512Z,14.72
2017-04-14T13:29:31.345Z,14.65
2017-04-14T13:30:41.701Z,14.67
2017-04-14T13:31:52.371Z,14.66
2017-04-14T13:33:03.145Z,14.56
2017-04-14T13:34:13.989Z,14.59
2017-04-14T13:35:24.712Z,14.5
2017-04-14T13:36:35.617Z,14.56
2017-04-14T13:37:46.388Z,14.52
2017-04-14T13:38:58.076Z,14.54
2017-04-14T13:40:08.388Z,14.52
2017-04-14T13:41:19.419Z,14.51
2017-04-14T13:42:30.474Z,14.5
2017-04-14T13:43:41.185Z,14.54
2017-04-14T13:44:51.913Z,14.58
2017-04-14T13:46:02.818Z,14.5
2017-04-14T13:47:13.625Z,14.5
2017-04-14T13:48:23.976Z,14.47
2017-04-14T13:49:34.719Z,14.37
2017-04-14T13:50:44.773Z,14.47
2017-04-14T13:51:55.596Z,14.54
2017-04-14T13:53:06.312Z,14.67
2017-04-14T13:54:18.291Z,14.63
2017-04-14T13:55:28.736Z,14.67
2017-04-14T13:56:39.444Z,14.67
2017-04-14T13:57:49.900Z,14.6
2017-04-14T13:59:00.744Z,14.74
2017-04-14T14:00:11.111Z,14.67
2017-04-14T14:01:21.894Z,14.59
2017-04-14T14:02:32.657Z,14.66
2017-04-14T14:03:43.050Z,14.63
2017-04-14T14:04:53.893Z,14.52
2017-04-14T14:06:04.651Z,14.56
2017-04-14T14:07:15.509Z,14.47
2017-04-14T14:08:26.926Z,14.47
2017-04-14T14:09:37.403Z,14.31
2017-04-14T14:10:48.129Z,14.26
2017-04-14T14:11:58.787Z,14.24
2017-04-14T14:13:09.561Z,14.04
2017-04-14T14:14:20.011Z,14.06
2017-04-14T14:15:30.860Z,14.03
2017-04-14T14:16:41.720Z,13.89
2017-04-14T14:17:52.977Z,13.91
2017-04-14T14:19:03.699Z,13.82
2017-04-14T14:20:13.773Z,13.81
2017-04-14T14:21:24.336Z,13.82
2017-04-14T14:22:35.169Z,13.74
2017-04-14T14:23:45.798Z,13.84
2017-04-14T14:24:56.346Z,13.88
2017-04-14T14:26:07.210Z,13.81
2017-04-14T14:27:17.942Z,13.82
2017-04-14T14:28:28.044Z,13.81
2017-04-14T14:29:38.851Z,13.79
2017-04-14T14:30:49.565Z,13.7
2017-04-14T14:31:59.944Z,13.7
2017-04-14T14:33:11.337Z,13.69
2017-04-14T14:34:22.232Z,13.61
2017-04-14T14:35:33.304Z,13.64
2017-04-14T14:36:44.141Z,13.61
2017-04-14T14:37:54.899Z,13.55
2017-04-14T14:39:05.392Z,13.46
2017-04-14T14:40:15.774Z,13.48
2017-04-14T14:41:26.822Z,13.49
2017-04-14T14:42:37.217Z,13.46
2017-04-14T14:43:47.601Z,13.4
2017-04-14T14:44:59.389Z,13.37
2017-04-14T14:46:10.166Z,13.36
2017-04-14T14:47:20.909Z,13.34
2017-04-14T14:48:31.635Z,13.27
2017-04-14T14:49:42.369Z,13.16
2017-04-14T14:50:53.081Z,13.12
2017-04-14T14:52:03.892Z,13.16
2017-04-14T14:53:14.678Z,13.06
2017-04-14T14:54:25.543Z,13.01
2017-04-14T14:55:36.249Z,12.92
2017-04-14T14:56:46.650Z,12.84
2017-04-14T14:57:57.017Z,12.77
2017-04-14T14:59:08.131Z,12.8
2017-04-14T15:00:18.865Z,12.7
2017-04-14T15:01:29.649Z,12.63
2017-04-14T15:02:41.363Z,12.78
2017-04-14T15:03:51.800Z,12.63
2017-04-14T15:05:02.481Z,12.74
2017-04-14T15:06:12.146Z,12.62
2017-04-14T15:07:22.579Z,12.64
2017-04-14T15:08:33.353Z,12.57
2017-04-14T15:09:44.065Z,12.45
2017-04-14T15:10:54.787Z,12.35
2017-04-14T15:12:05.215Z,12.37
2017-04-14T15:13:15.752Z,12.38
2017-04-14T15:14:26.586Z,12.38
2017-04-14T15:15:37.298Z,12.41
2017-04-14T15:16:48.005Z,12.39
2017-04-14T15:17:58.753Z,12.35
2017-04-14T15:19:09.261Z,12.34
2017-04-14T15:20:19.693Z,12.35
2017-04-14T15:21:30.452Z,12.19
2017-04-14T15:22:41.563Z,12.22
2017-04-14T15:23:53.258Z,12.15
2017-04-14T15:25:04.038Z,12.05
2017-04-14T15:26:15.705Z,12.07
2017-04-14T15:27:26.093Z,12.04